Time;durP1;ratioP1;P1;durP2;ratioP2;P2;SDS_P1;SDS_P2;PMS_P1;PMS_P2;Temp;Humidity;BMP_temperature;BMP_pressure;BME280_temperature;BME280_humidity;BME280_pressure;Samples;Min_cycle;Max_cycle;Signal;HPM_P1;HPM_P2
2021/08/17 00:01:23;;;;;;;2.20;2.00;;;25.40;51.70;;;;;;5052145;28;20229;-49
2021/08/17 00:03:50;;;;;;;2.63;2.05;;;25.40;51.70;;;;;;5051246;28;20229;-46
2021/08/17 00:06:16;;;;;;;2.45;2.13;;;25.40;51.70;;;;;;5052773;28;20213;-49
2021/08/17 00:08:43;;;;;;;2.45;2.25;;;25.40;51.70;;;;;;5052456;28;20202;-50
2021/08/17 00:11:09;;;;;;;2.50;2.30;;;25.40;51.70;;;;;;5052246;28;20225;-50
2021/08/17 00:13:35;;;;;;;1.90;1.75;;;25.40;51.70;;;;;;5051584;28;20228;-49
2021/08/17 00:16:02;;;;;;;2.28;1.92;;;25.40;51.70;;;;;;5052901;28;20198;-49
2021/08/17 00:18:28;;;;;;;2.42;1.90;;;25.40;51.70;;;;;;5052034;28;20280;-46
2021/08/17 00:20:55;;;;;;;2.05;1.85;;;25.40;51.70;;;;;;5052319;28;20622;-46
2021/08/17 00:23:21;;;;;;;1.80;1.70;;;25.40;51.60;;;;;;5049705;28;20676;-46
2021/08/17 00:25:48;;;;;;;2.20;2.00;;;25.40;51.60;;;;;;5052853;28;20212;-49
2021/08/17 00:28:14;;;;;;;2.20;2.00;;;25.40;51.70;;;;;;5050225;28;20210;-50
2021/08/17 00:30:41;;;;;;;2.22;2.05;;;25.40;51.70;;;;;;5051831;28;20205;-47
2021/08/17 00:33:07;;;;;;;2.78;2.10;;;25.40;51.60;;;;;;5051050;28;20226;-50
2021/08/17 00:35:34;;;;;;;3.83;2.22;;;25.40;51.70;;;;;;5051562;28;20197;-48
2021/08/17 00:38:00;;;;;;;2.08;1.90;;;25.40;51.60;;;;;;5051009;28;20221;-48
2021/08/17 00:40:26;;;;;;;2.40;2.08;;;25.40;51.70;;;;;;5052205;28;20202;-45
2021/08/17 00:42:53;;;;;;;2.10;1.88;;;25.40;51.90;;;;;;5051780;28;20526;-49
2021/08/17 00:45:19;;;;;;;2.42;2.08;;;25.40;51.70;;;;;;5050997;28;20572;-46
2021/08/17 00:47:46;;;;;;;2.35;2.00;;;25.40;51.70;;;;;;5045721;28;20205;-46
2021/08/17 00:50:12;;;;;;;2.08;1.88;;;25.40;51.70;;;;;;5050928;28;20202;-49
2021/08/17 00:52:39;;;;;;;2.20;2.00;;;25.40;51.70;;;;;;5051780;28;20241;-45
2021/08/17 00:55:05;;;;;;;2.35;2.15;;;25.40;51.80;;;;;;5051227;28;20208;-46
2021/08/17 00:57:31;;;;;;;2.55;2.00;;;25.40;51.80;;;;;;5052170;28;20218;-49
2021/08/17 00:59:58;;;;;;;2.80;2.05;;;25.40;51.80;;;;;;5050933;28;20202;-48
2021/08/17 01:02:24;;;;;;;2.50;1.95;;;25.40;51.80;;;;;;5052097;28;20301;-47
2021/08/17 01:04:51;;;;;;;2.00;1.80;;;25.40;51.80;;;;;;5049927;28;20198;-50
2021/08/17 01:07:17;;;;;;;2.10;1.75;;;25.40;51.80;;;;;;5050847;28;20284;-51
2021/08/17 01:09:44;;;;;;;2.03;1.88;;;25.40;51.80;;;;;;5048450;28;20202;-49
2021/08/17 01:12:10;;;;;;;2.60;1.88;;;25.40;51.80;;;;;;5050079;28;20255;-51
2021/08/17 01:14:36;;;;;;;2.33;2.13;;;25.40;51.90;;;;;;5050558;28;20308;-49
2021/08/17 01:17:03;;;;;;;2.15;1.95;;;25.40;51.90;;;;;;5050605;28;20201;-49
2021/08/17 01:19:29;;;;;;;2.63;1.90;;;25.40;51.90;;;;;;5051246;28;20204;-49
2021/08/17 01:21:56;;;;;;;2.08;1.88;;;25.40;51.90;;;;;;5051380;28;20201;-48
2021/08/17 01:24:22;;;;;;;2.00;1.80;;;25.40;51.90;;;;;;5050325;28;20212;-49
2021/08/17 01:26:49;;;;;;;2.10;1.90;;;25.40;51.90;;;;;;5050722;28;20569;-50
2021/08/17 01:29:16;;;;;;;2.78;2.28;;;25.40;51.90;;;;;;5050272;28;20202;-45
2021/08/17 01:31:42;;;;;;;2.55;2.08;;;25.40;52.00;;;;;;5051088;28;20630;-51
2021/08/17 01:34:09;;;;;;;2.50;2.00;;;25.40;52.00;;;;;;5049105;28;20571;-47
2021/08/17 01:36:35;;;;;;;2.00;1.90;;;25.40;52.00;;;;;;5049643;28;20546;-49
2021/08/17 01:39:01;;;;;;;2.00;1.70;;;25.40;52.00;;;;;;5050790;28;20615;-48
2021/08/17 01:41:29;;;;;;;2.20;2.00;;;25.40;52.00;;;;;;5049813;28;20799;-48
2021/08/17 01:43:56;;;;;;;2.00;1.80;;;25.40;52.00;;;;;;5049383;28;20603;-50
2021/08/17 01:46:22;;;;;;;2.78;2.00;;;25.40;52.10;;;;;;5049695;28;20255;-44
2021/08/17 01:48:49;;;;;;;3.17;1.90;;;25.40;52.10;;;;;;5050909;28;20594;-45
2021/08/17 01:51:15;;;;;;;2.08;1.95;;;25.40;52.10;;;;;;5049855;28;20198;-44
2021/08/17 01:53:42;;;;;;;1.90;1.67;;;25.40;52.00;;;;;;5049863;28;20348;-45
2021/08/17 01:56:08;;;;;;;2.63;2.10;;;25.40;52.00;;;;;;5049852;28;20288;-47
2021/08/17 01:58:35;;;;;;;2.35;2.10;;;25.40;52.00;;;;;;5050040;28;20293;-49
2021/08/17 02:01:01;;;;;;;2.20;1.80;;;25.40;52.70;;;;;;5050586;28;20202;-45
2021/08/17 02:03:28;;;;;;;2.67;1.73;;;25.40;52.00;;;;;;5049680;28;20218;-46
2021/08/17 02:05:54;;;;;;;2.40;2.20;;;25.40;52.00;;;;;;5050679;28;20294;-45
2021/08/17 02:08:20;;;;;;;2.58;2.08;;;25.40;52.00;;;;;;5049690;28;20212;-47
2021/08/17 02:10:47;;;;;;;2.10;1.90;;;25.40;52.00;;;;;;5049233;28;20202;-49
2021/08/17 02:13:16;;;;;;;1.80;1.70;;;25.40;52.10;;;;;;5048885;28;20230;-48
2021/08/17 02:15:43;;;;;;;1.90;1.80;;;25.40;52.10;;;;;;5050887;28;20271;-51
2021/08/17 02:18:09;;;;;;;1.80;1.70;;;25.40;52.10;;;;;;5049206;28;20574;-47
2021/08/17 02:20:35;;;;;;;3.45;1.80;;;25.40;52.20;;;;;;5049832;28;20566;-49
2021/08/17 02:23:02;;;;;;;2.22;1.90;;;25.40;52.20;;;;;;5049321;28;20681;-47
2021/08/17 02:25:28;;;;;;;1.92;1.70;;;25.40;52.20;;;;;;5050723;28;20288;-49
2021/08/17 02:27:55;;;;;;;2.25;2.00;;;25.40;52.20;;;;;;5048783;28;20212;-49
2021/08/17 02:30:21;;;;;;;1.92;1.75;;;25.40;52.20;;;;;;5049895;28;20194;-44
2021/08/17 02:32:48;;;;;;;1.98;1.77;;;25.40;52.20;;;;;;5050208;28;20229;-46
2021/08/17 02:35:14;;;;;;;2.13;1.92;;;25.40;52.30;;;;;;5049475;28;20208;-47
2021/08/17 02:37:41;;;;;;;2.97;1.83;;;25.40;52.30;;;;;;5050180;28;20218;-49
2021/08/17 02:40:07;;;;;;;1.77;1.67;;;25.40;52.30;;;;;;5048412;28;20653;-46
2021/08/17 02:42:33;;;;;;;2.13;1.67;;;25.40;52.30;;;;;;5048116;28;20577;-47
2021/08/17 02:45:00;;;;;;;2.13;1.58;;;25.40;52.30;;;;;;5046328;28;20551;-47
2021/08/17 02:47:27;;;;;;;2.53;1.80;;;25.40;52.30;;;;;;5047861;28;20201;-48
2021/08/17 02:49:53;;;;;;;1.80;1.70;;;25.40;52.30;;;;;;5047590;28;20216;-48
2021/08/17 02:52:20;;;;;;;1.88;1.70;;;25.40;52.30;;;;;;5049891;28;20229;-48
2021/08/17 02:54:48;;;;;;;2.22;2.03;;;25.40;52.40;;;;;;5049666;28;20204;-47
2021/08/17 02:57:14;;;;;;;2.97;2.20;;;25.40;52.40;;;;;;5049968;28;20209;-48
2021/08/17 02:59:40;;;;;;;1.67;1.58;;;25.40;52.40;;;;;;5051150;28;20214;-46
2021/08/17 03:02:07;;;;;;;4.55;2.20;;;25.40;52.50;;;;;;5052850;28;20225;-50
2021/08/17 03:04:33;;;;;;;1.90;1.65;;;25.40;52.60;;;;;;5053323;28;20212;-46
2021/08/17 03:07:00;;;;;;;3.50;1.88;;;25.40;52.80;;;;;;5053317;28;20205;-45
2021/08/17 03:09:26;;;;;;;2.38;1.80;;;25.40;52.80;;;;;;5053508;28;20257;-48
2021/08/17 03:11:53;;;;;;;3.08;1.98;;;25.40;52.80;;;;;;5052787;28;20229;-50
2021/08/17 03:14:19;;;;;;;2.03;1.83;;;25.40;52.90;;;;;;5051671;28;20202;-47
2021/08/17 03:16:45;;;;;;;2.17;1.98;;;25.40;52.90;;;;;;5052718;28;20210;-47
2021/08/17 03:19:12;;;;;;;2.08;1.88;;;25.40;53.00;;;;;;5053583;28;20208;-51
2021/08/17 03:21:39;;;;;;;5.25;2.53;;;25.40;53.00;;;;;;5052087;28;20229;-50
2021/08/17 03:24:06;;;;;;;3.33;1.70;;;25.40;53.00;;;;;;5052849;28;20205;-51
2021/08/17 03:26:32;;;;;;;2.00;1.38;;;25.40;53.00;;;;;;5052723;28;20242;-49
2021/08/17 03:28:59;;;;;;;2.42;1.80;;;25.40;53.00;;;;;;5053698;28;20204;-50
2021/08/17 03:31:25;;;;;;;2.63;1.88;;;25.40;53.00;;;;;;5051460;28;20212;-50
2021/08/17 03:33:52;;;;;;;2.17;1.70;;;25.40;52.90;;;;;;5053046;28;20198;-50
2021/08/17 03:36:18;;;;;;;2.10;1.90;;;25.40;52.90;;;;;;5052884;28;20198;-48
2021/08/17 03:38:45;;;;;;;2.58;1.70;;;25.40;52.90;;;;;;5051527;28;20301;-50
2021/08/17 03:41:11;;;;;;;2.00;1.80;;;25.40;52.80;;;;;;5052966;28;20190;-49
2021/08/17 03:43:38;;;;;;;1.92;1.70;;;25.40;52.90;;;;;;5052518;28;20232;-49
2021/08/17 03:46:05;;;;;;;3.30;1.52;;;25.40;52.90;;;;;;5052257;28;20232;-48
2021/08/17 03:48:32;;;;;;;3.33;1.60;;;25.40;52.90;;;;;;5053798;28;20216;-50
2021/08/17 03:50:58;;;;;;;1.85;1.60;;;25.40;52.90;;;;;;5051551;28;20198;-49
2021/08/17 03:53:25;;;;;;;3.42;1.80;;;25.40;52.90;;;;;;5052965;28;20245;-50
2021/08/17 03:55:51;;;;;;;3.55;1.80;;;25.40;53.00;;;;;;5051825;28;20202;-48
2021/08/17 03:58:18;;;;;;;2.50;1.50;;;25.40;52.90;;;;;;5053334;28;20564;-50
2021/08/17 04:00:44;;;;;;;2.13;1.90;;;25.40;52.90;;;;;;5051159;28;20560;-48
2021/08/17 04:03:10;;;;;;;2.53;1.65;;;25.40;52.90;;;;;;5052924;28;20685;-47
2021/08/17 04:05:37;;;;;;;4.15;2.00;;;25.40;52.90;;;;;;5051281;28;20267;-49
2021/08/17 04:08:05;;;;;;;1.80;1.50;;;25.40;53.20;;;;;;5052731;28;20193;-48
2021/08/17 04:10:31;;;;;;;2.50;2.00;;;25.40;52.80;;;;;;5051380;28;20284;-48
2021/08/17 04:12:58;;;;;;;2.45;1.48;;;25.40;52.80;;;;;;5052391;28;20268;-51
2021/08/17 04:15:24;;;;;;;2.50;1.77;;;25.40;52.90;;;;;;5049985;28;20248;-49
2021/08/17 04:17:50;;;;;;;2.08;1.80;;;25.40;52.90;;;;;;5052965;28;20206;-48
2021/08/17 04:20:17;;;;;;;2.17;1.70;;;25.40;52.80;;;;;;5051337;28;20202;-45
2021/08/17 04:22:43;;;;;;;2.25;2.00;;;25.40;52.80;;;;;;5048797;28;20221;-51
2021/08/17 04:25:10;;;;;;;2.88;1.67;;;25.40;52.80;;;;;;5051433;28;20198;-47
2021/08/17 04:27:36;;;;;;;2.30;1.70;;;25.30;52.70;;;;;;5051260;28;20218;-51
2021/08/17 04:30:03;;;;;;;1.50;1.40;;;25.30;52.70;;;;;;5051399;28;20209;-51
2021/08/17 04:32:29;;;;;;;1.92;1.60;;;25.40;52.70;;;;;;5050930;28;20320;-51
2021/08/17 04:34:56;;;;;;;2.53;1.73;;;25.40;52.60;;;;;;5050479;28;20201;-48
2021/08/17 04:37:22;;;;;;;1.92;1.70;;;25.30;52.50;;;;;;5052384;28;20210;-43
2021/08/17 04:39:48;;;;;;;2.40;1.98;;;25.30;52.50;;;;;;5051199;28;20202;-47
2021/08/17 04:42:15;;;;;;;2.65;1.50;;;25.30;52.40;;;;;;5051893;28;20223;-49
2021/08/17 04:44:41;;;;;;;2.28;1.45;;;25.30;52.40;;;;;;5050908;28;20202;-49
2021/08/17 04:47:08;;;;;;;2.10;1.83;;;25.30;52.50;;;;;;5051931;28;20200;-45
2021/08/17 04:49:34;;;;;;;2.20;1.67;;;25.30;52.40;;;;;;5049172;28;20204;-50
2021/08/17 04:52:01;;;;;;;2.67;1.40;;;25.30;52.40;;;;;;5051370;28;20226;-49
2021/08/17 04:54:27;;;;;;;3.55;1.80;;;25.30;52.40;;;;;;5050924;28;20193;-44
2021/08/17 04:56:53;;;;;;;2.38;2.00;;;25.30;52.30;;;;;;5051817;28;20205;-47
2021/08/17 04:59:20;;;;;;;1.80;1.67;;;25.40;52.30;;;;;;5050959;28;20202;-48
2021/08/17 05:01:48;;;;;;;2.50;2.30;;;25.30;52.20;;;;;;5051457;28;20320;-46
2021/08/17 05:04:14;;;;;;;2.10;1.77;;;25.30;52.20;;;;;;5051729;28;20200;-49
2021/08/17 05:06:41;;;;;;;2.35;2.15;;;25.30;52.20;;;;;;5050480;28;20213;-51
2021/08/17 05:09:07;;;;;;;2.88;1.75;;;25.30;52.20;;;;;;5051795;28;20208;-50
2021/08/17 05:11:33;;;;;;;2.10;1.65;;;25.30;52.10;;;;;;5049826;28;20206;-50
2021/08/17 05:14:00;;;;;;;2.08;1.88;;;25.30;52.10;;;;;;5050887;28;20230;-48
2021/08/17 05:16:26;;;;;;;2.10;1.80;;;25.30;52.10;;;;;;5048526;28;20198;-43
2021/08/17 05:18:53;;;;;;;1.73;1.50;;;25.40;52.10;;;;;;5050657;28;20201;-49
2021/08/17 05:21:21;;;;;;;1.70;1.55;;;25.40;52.10;;;;;;5049473;28;20217;-51
2021/08/17 05:23:47;;;;;;;2.00;1.45;;;25.30;52.00;;;;;;5050795;28;20598;-47
2021/08/17 05:26:14;;;;;;;2.22;1.70;;;25.30;52.00;;;;;;5049715;28;20647;-48
2021/08/17 05:28:40;;;;;;;1.60;1.50;;;25.30;52.00;;;;;;5046560;28;20206;-48
2021/08/17 05:31:06;;;;;;;2.25;1.75;;;25.30;51.90;;;;;;5050970;28;20202;-50
2021/08/17 05:33:33;;;;;;;1.75;1.65;;;25.30;51.90;;;;;;5050651;28;20617;-44
2021/08/17 05:35:59;;;;;;;1.92;1.42;;;25.40;51.90;;;;;;5049664;28;20214;-46
2021/08/17 05:38:26;;;;;;;1.60;1.50;;;25.30;51.80;;;;;;5051060;28;20578;-48
2021/08/17 05:40:52;;;;;;;1.75;1.65;;;25.30;51.80;;;;;;5049496;28;20492;-46
2021/08/17 05:43:19;;;;;;;1.98;1.70;;;25.40;51.80;;;;;;5040350;28;20329;-51
2021/08/17 05:45:45;;;;;;;1.70;1.55;;;25.30;51.70;;;;;;5049862;28;20194;-47
2021/08/17 05:48:11;;;;;;;2.10;1.90;;;25.40;51.80;;;;;;5051202;28;20808;-46
2021/08/17 05:50:38;;;;;;;1.83;1.58;;;25.40;51.80;;;;;;5049968;28;20569;-48
2021/08/17 05:53:04;;;;;;;1.80;1.50;;;25.30;51.60;;;;;;5050221;28;20677;-47
2021/08/17 05:55:31;;;;;;;1.75;1.65;;;25.30;51.50;;;;;;5051070;28;20668;-47
2021/08/17 05:57:58;;;;;;;1.73;1.50;;;25.40;51.70;;;;;;5049762;28;20206;-49
2021/08/17 06:00:24;;;;;;;2.00;1.55;;;25.40;51.70;;;;;;5050598;28;20202;-44
2021/08/17 06:02:51;;;;;;;1.95;1.75;;;25.40;51.60;;;;;;5049865;28;20222;-51
2021/08/17 06:05:17;;;;;;;2.05;1.60;;;25.40;51.60;;;;;;5049000;28;20204;-47
2021/08/17 06:07:44;;;;;;;1.70;1.60;;;25.40;51.50;;;;;;5050168;28;20198;-48
2021/08/17 06:10:10;;;;;;;1.67;1.58;;;25.40;51.60;;;;;;5048713;28;20284;-44
2021/08/17 06:12:36;;;;;;;1.88;1.73;;;25.40;51.50;;;;;;5050299;28;20240;-47
2021/08/17 06:15:03;;;;;;;2.53;1.70;;;25.30;51.50;;;;;;5048607;28;20190;-51
2021/08/17 06:17:29;;;;;;;1.75;1.65;;;25.40;51.50;;;;;;5049789;28;20297;-48
2021/08/17 06:19:56;;;;;;;1.95;1.67;;;25.40;51.50;;;;;;5047516;28;20198;-48
2021/08/17 06:22:22;;;;;;;2.15;1.92;;;25.30;51.50;;;;;;5050298;28;20236;-49
2021/08/17 06:24:49;;;;;;;2.08;1.50;;;25.40;51.60;;;;;;5050627;28;20629;-46
2021/08/17 06:27:16;;;;;;;2.28;1.42;;;25.40;51.60;;;;;;5049099;28;20280;-45
2021/08/17 06:29:42;;;;;;;1.67;1.33;;;25.40;51.50;;;;;;5048571;28;20205;-50
2021/08/17 06:32:09;;;;;;;2.40;1.63;;;25.40;51.50;;;;;;5049387;28;20218;-49
2021/08/17 06:34:35;;;;;;;2.40;1.80;;;25.40;51.50;;;;;;5048708;28;20229;-49
2021/08/17 06:37:02;;;;;;;1.65;1.55;;;25.40;51.50;;;;;;5049033;28;20200;-47
2021/08/17 06:39:28;;;;;;;1.77;1.58;;;25.40;51.50;;;;;;5049281;28;20206;-49
2021/08/17 06:41:55;;;;;;;2.17;1.70;;;25.40;51.50;;;;;;5049413;28;20222;-46
2021/08/17 06:44:21;;;;;;;1.63;1.52;;;25.40;51.50;;;;;;5050598;28;20220;-48
2021/08/17 06:46:47;;;;;;;2.85;1.77;;;25.40;51.50;;;;;;5047973;28;20201;-47
2021/08/17 06:49:14;;;;;;;1.80;1.70;;;25.40;51.40;;;;;;5049180;28;20200;-48
2021/08/17 06:51:40;;;;;;;2.17;1.73;;;25.40;51.30;;;;;;5048913;28;20221;-47
2021/08/17 06:54:07;;;;;;;2.10;1.90;;;25.40;51.30;;;;;;5050586;28;20233;-44
2021/08/17 06:56:33;;;;;;;2.45;1.95;;;25.40;51.40;;;;;;5048258;28;20200;-48
2021/08/17 06:59:00;;;;;;;1.75;1.45;;;25.40;51.30;;;;;;5049789;28;20236;-48
2021/08/17 07:01:26;;;;;;;1.77;1.60;;;25.40;51.30;;;;;;5048457;28;20717;-48
2021/08/17 07:03:53;;;;;;;2.08;1.58;;;25.40;51.30;;;;;;5049742;28;20198;-48
2021/08/17 07:06:19;;;;;;;2.55;1.70;;;25.40;51.20;;;;;;5048880;28;20236;-50
2021/08/17 07:08:45;;;;;;;2.03;1.75;;;25.40;51.60;;;;;;5048926;28;20201;-45
2021/08/17 07:11:12;;;;;;;2.63;1.88;;;25.40;51.10;;;;;;5047686;28;20221;-49
2021/08/17 07:13:38;;;;;;;2.60;2.00;;;25.30;48.40;;;;;;5038441;28;20218;-48
2021/08/17 07:16:05;;;;;;;2.22;2.03;;;25.10;46.30;;;;;;5050156;28;20205;-51
2021/08/17 07:18:31;;;;;;;3.58;1.90;;;25.00;42.40;;;;;;5049248;28;20293;-49
2021/08/17 07:20:58;;;;;;;2.63;2.35;;;24.90;41.80;;;;;;5036891;28;20651;-49
2021/08/17 07:23:24;;;;;;;2.90;2.60;;;24.80;40.50;;;;;;5047784;28;20615;-51
2021/08/17 07:25:51;;;;;;;2.45;2.08;;;24.80;39.70;;;;;;5048901;28;20221;-47
2021/08/17 07:28:18;;;;;;;2.60;2.35;;;24.70;38.70;;;;;;5049661;28;20206;-45
2021/08/17 07:30:45;;;;;;;3.17;2.22;;;24.60;38.10;;;;;;5047429;28;20208;-46
2021/08/17 07:33:11;;;;;;;4.20;2.20;;;24.50;38.00;;;;;;5049036;28;20230;-51
2021/08/17 07:35:38;;;;;;;3.20;2.35;;;24.60;38.50;;;;;;5058930;28;20734;-53
2021/08/17 07:38:04;;;;;;;5.30;2.22;;;24.70;37.80;;;;;;5048689;28;20519;-52
2021/08/17 07:40:31;;;;;;;2.60;2.25;;;24.70;36.50;;;;;;5043677;28;20230;-54
2021/08/17 07:42:57;;;;;;;3.45;2.50;;;24.70;36.00;;;;;;5046936;28;20248;-54
2021/08/17 07:45:23;;;;;;;3.88;2.70;;;24.70;35.60;;;;;;5050735;28;20197;-51
2021/08/17 07:47:50;;;;;;;4.13;2.72;;;24.60;34.80;;;;;;5052568;28;20228;-56
2021/08/17 07:50:16;;;;;;;7.88;2.63;;;24.60;35.50;;;;;;5048950;28;20289;-48
2021/08/17 07:52:43;;;;;;;4.55;2.95;;;24.50;35.60;;;;;;5054389;28;20312;-48
2021/08/17 07:55:09;;;;;;;4.43;2.50;;;24.60;37.10;;;;;;5049825;28;20198;-50
2021/08/17 07:57:36;;;;;;;4.70;2.50;;;24.50;36.00;;;;;;5048857;28;20304;-47
2021/08/17 08:00:02;;;;;;;8.85;3.03;;;24.50;36.20;;;;;;5040835;28;20206;-46
2021/08/17 08:02:29;;;;;;;5.75;2.90;;;24.40;36.00;;;;;;5053458;28;20232;-51
2021/08/17 08:04:55;;;;;;;3.35;2.63;;;24.40;36.60;;;;;;5057746;28;20209;-45
2021/08/17 08:07:21;;;;;;;4.63;2.42;;;24.40;36.30;;;;;;5054190;28;20198;-53
2021/08/17 08:09:48;;;;;;;3.72;2.47;;;21.60;31.20;;;;;;5051528;28;20202;-53
2021/08/17 08:12:14;;;;;;;4.18;2.60;;;19.40;36.60;;;;;;5044318;28;20217;-49
2021/08/17 08:14:41;;;;;;;3.08;2.67;;;18.50;38.10;;;;;;5047446;28;20236;-54
2021/08/17 08:17:07;;;;;;;3.50;2.70;;;18.20;38.20;;;;;;5036431;28;20198;-48
2021/08/17 08:19:34;;;;;;;2.83;2.58;;;18.80;38.00;;;;;;5044575;28;20273;-55
2021/08/17 08:22:00;;;;;;;4.10;2.83;;;19.20;38.60;;;;;;5047844;28;20581;-50
2021/08/17 08:24:27;;;;;;;4.85;2.80;;;19.20;37.10;;;;;;5050844;28;20566;-53
2021/08/17 08:26:53;;;;;;;3.97;2.70;;;18.20;36.50;;;;;;5051346;28;20228;-54
2021/08/17 08:29:19;;;;;;;3.33;2.67;;;18.60;38.10;;;;;;5049663;28;20220;-54
2021/08/17 08:31:46;;;;;;;5.00;2.90;;;19.40;36.00;;;;;;5050387;28;20309;-49
2021/08/17 08:34:12;;;;;;;5.03;2.83;;;18.70;36.00;;;;;;5048935;28;20226;-53
2021/08/17 08:36:39;;;;;;;3.37;2.90;;;18.60;36.80;;;;;;5052230;28;20244;-53
2021/08/17 08:39:05;;;;;;;2.70;2.40;;;17.80;36.90;;;;;;5047634;28;20209;-49
2021/08/17 08:41:32;;;;;;;5.17;3.10;;;17.70;38.50;;;;;;5044588;28;20273;-56
2021/08/17 08:43:58;;;;;;;3.17;2.70;;;18.20;37.80;;;;;;5046218;28;20206;-57
2021/08/17 08:46:25;;;;;;;3.23;2.60;;;19.70;38.10;;;;;;5052648;28;20624;-57
2021/08/17 08:48:52;;;;;;;3.70;2.50;;;20.90;36.80;;;;;;5045155;28;20362;-55
2021/08/17 08:51:18;;;;;;;4.47;2.90;;;21.60;36.00;;;;;;5047909;28;20231;-56
2021/08/17 08:53:45;;;;;;;3.37;2.70;;;22.10;36.40;;;;;;5055587;28;20592;-54
2021/08/17 08:56:11;;;;;;;2.70;2.10;;;22.40;36.70;;;;;;5046633;28;20302;-56
2021/08/17 08:58:38;;;;;;;3.30;2.70;;;22.60;36.40;;;;;;5047934;28;20213;-54
2021/08/17 09:01:04;;;;;;;3.03;2.70;;;22.80;37.10;;;;;;5046769;28;20314;-56
2021/08/17 09:03:31;;;;;;;2.60;2.40;;;23.00;37.20;;;;;;5061885;28;20291;-50
2021/08/17 09:05:57;;;;;;;3.90;2.53;;;23.10;37.50;;;;;;5052202;28;20765;-54
2021/08/17 09:08:23;;;;;;;2.63;2.35;;;23.20;37.70;;;;;;5044555;28;20658;-49
2021/08/17 09:10:50;;;;;;;4.20;2.58;;;23.30;38.30;;;;;;5045798;28;20638;-52
2021/08/17 09:13:16;;;;;;;4.13;2.63;;;23.30;38.60;;;;;;5035771;28;20639;-48
2021/08/17 09:15:43;;;;;;;3.30;2.67;;;23.50;38.30;;;;;;5047505;28;20931;-53
2021/08/17 09:18:09;;;;;;;2.83;2.40;;;23.60;38.70;;;;;;5046673;28;20576;-53
2021/08/17 09:20:36;;;;;;;3.10;2.33;;;23.60;37.80;;;;;;5053982;28;20674;-50
2021/08/17 09:23:03;;;;;;;3.97;3.10;;;23.60;36.60;;;;;;5049254;28;20232;-52
2021/08/17 09:25:29;;;;;;;6.30;3.00;;;23.10;35.10;;;;;;5047262;28;20301;-47
2021/08/17 09:27:56;;;;;;;5.75;3.08;;;22.30;33.90;;;;;;5047623;28;20212;-50
2021/08/17 09:30:22;;;;;;;5.57;2.78;;;21.80;34.60;;;;;;5046162;28;20218;-49
2021/08/17 09:32:49;;;;;;;4.82;3.10;;;22.00;36.00;;;;;;5046939;28;20206;-53
2021/08/17 09:35:15;;;;;;;4.43;3.17;;;22.20;34.90;;;;;;5047267;28;20229;-52
2021/08/17 09:37:42;;;;;;;12.07;7.05;;;22.10;34.80;;;;;;5008972;28;1155102;-51
2021/08/17 09:40:08;;;;;;;24.20;17.17;;;22.20;35.20;;;;;;5048716;28;20698;-53
2021/08/17 09:42:35;;;;;;;11.23;7.70;;;22.40;35.40;;;;;;5048791;28;20503;-50
2021/08/17 09:45:01;;;;;;;6.65;4.90;;;22.30;33.80;;;;;;5048427;28;20206;-51
2021/08/17 09:47:28;;;;;;;4.60;3.47;;;22.20;34.00;;;;;;5037766;28;20217;-54
2021/08/17 09:49:54;;;;;;;5.25;3.45;;;22.00;33.60;;;;;;5047420;28;20296;-54
2021/08/17 09:52:20;;;;;;;4.75;3.30;;;21.90;34.20;;;;;;5049470;28;20225;-52
2021/08/17 09:54:47;;;;;;;6.05;3.55;;;22.10;34.60;;;;;;5047351;28;20313;-48
2021/08/17 09:57:13;;;;;;;3.83;3.30;;;22.30;34.70;;;;;;5050631;28;20212;-51
2021/08/17 09:59:40;;;;;;;5.13;3.53;;;22.20;34.20;;;;;;5030618;28;20293;-47
2021/08/17 10:02:06;;;;;;;4.43;3.00;;;22.30;34.10;;;;;;5031418;28;20223;-48
2021/08/17 10:04:33;;;;;;;6.43;3.40;;;22.30;34.00;;;;;;5046772;28;20197;-45
2021/08/17 10:06:59;;;;;;;3.58;2.72;;;22.30;34.20;;;;;;5050642;28;20197;-45
2021/08/17 10:09:26;;;;;;;3.55;3.00;;;22.20;33.90;;;;;;5049718;28;20201;-50
2021/08/17 10:11:52;;;;;;;3.90;2.95;;;22.20;34.20;;;;;;5050896;28;20224;-51
2021/08/17 10:14:19;;;;;;;4.43;2.88;;;22.00;33.90;;;;;;5050463;28;20229;-44
2021/08/17 10:16:45;;;;;;;4.43;2.88;;;21.90;34.10;;;;;;5050303;28;20197;-49
2021/08/17 10:19:12;;;;;;;3.78;2.85;;;21.80;34.60;;;;;;5050673;28;20586;-49
2021/08/17 10:21:38;;;;;;;3.17;2.80;;;21.80;34.20;;;;;;5050090;28;20396;-46
2021/08/17 10:24:04;;;;;;;3.20;2.70;;;21.90;34.30;;;;;;5048230;28;20283;-49
2021/08/17 10:26:31;;;;;;;4.05;2.70;;;21.80;35.00;;;;;;5044776;28;20205;-50
2021/08/17 10:28:57;;;;;;;3.35;2.72;;;22.00;34.40;;;;;;5050847;28;20236;-47
2021/08/17 10:31:24;;;;;;;4.63;2.72;;;21.70;33.70;;;;;;5050179;28;20584;-50
2021/08/17 10:33:51;;;;;;;3.47;2.83;;;21.60;35.20;;;;;;5050489;28;20233;-49
2021/08/17 10:36:17;;;;;;;4.68;3.05;;;21.40;33.40;;;;;;5050064;28;20202;-47
2021/08/17 10:38:44;;;;;;;4.05;2.60;;;21.40;34.80;;;;;;5048616;28;20237;-45
2021/08/17 10:41:10;;;;;;;4.13;2.80;;;21.10;33.10;;;;;;5048482;28;20256;-50
2021/08/17 10:43:36;;;;;;;3.33;2.65;;;20.70;33.40;;;;;;5050468;28;20296;-50
2021/08/17 10:46:03;;;;;;;5.57;3.53;;;20.90;34.20;;;;;;5050475;28;20296;-48
2021/08/17 10:51:07;;;;;;;3.13;2.58;;;21.50;33.30;;;;;;5065933;28;20228;-51
2021/08/17 10:53:33;;;;;;;3.20;2.45;;;21.70;33.90;;;;;;5069732;28;20201;-52
2021/08/17 10:55:59;;;;;;;3.30;2.63;;;21.60;33.90;;;;;;5069660;28;20201;-52
2021/08/17 10:58:26;;;;;;;4.10;2.53;;;21.80;33.80;;;;;;5066941;28;20197;-50
2021/08/17 11:00:52;;;;;;;2.78;2.55;;;21.30;32.40;;;;;;5067395;28;20228;-56
2021/08/17 11:03:19;;;;;;;3.40;2.70;;;20.90;33.60;;;;;;5069147;28;20302;-49
2021/08/17 11:05:45;;;;;;;2.72;2.30;;;21.10;33.10;;;;;;5070028;28;20213;-51
2021/08/17 11:08:12;;;;;;;3.25;2.50;;;21.40;33.60;;;;;;5068973;28;20295;-54
2021/08/17 11:10:38;;;;;;;3.55;2.47;;;21.20;33.10;;;;;;5067614;28;20231;-51
2021/08/17 11:13:04;;;;;;;2.95;2.50;;;21.40;33.30;;;;;;5069020;28;20211;-47
2021/08/17 11:15:31;;;;;;;3.80;2.80;;;21.60;33.10;;;;;;5069301;28;20246;-50
2021/08/17 11:17:57;;;;;;;5.63;2.97;;;21.20;33.00;;;;;;5069132;28;20197;-53
2021/08/17 11:20:24;;;;;;;3.50;2.40;;;20.80;33.00;;;;;;5068375;28;20274;-50
2021/08/17 11:22:50;;;;;;;4.40;2.40;;;20.60;33.10;;;;;;5073032;28;20206;-57
2021/08/17 11:25:17;;;;;;;3.47;2.60;;;20.70;33.10;;;;;;5072293;28;20205;-53
2021/08/17 11:27:44;;;;;;;4.28;2.67;;;21.00;32.90;;;;;;5073996;28;20205;-49
2021/08/17 11:30:10;;;;;;;4.00;2.63;;;21.10;32.80;;;;;;5071366;28;20583;-49
2021/08/17 11:32:36;;;;;;;6.70;3.33;;;21.30;33.10;;;;;;5072352;28;20546;-55
2021/08/17 11:35:03;;;;;;;2.90;2.60;;;21.40;32.80;;;;;;5072934;28;20552;-58
2021/08/17 11:37:29;;;;;;;3.55;2.63;;;21.20;32.90;;;;;;5068923;28;20564;-58
2021/08/17 11:39:56;;;;;;;3.60;2.58;;;21.40;33.50;;;;;;5072376;28;20225;-58
2021/08/17 11:42:22;;;;;;;3.38;2.58;;;21.70;34.00;;;;;;5073638;28;20568;-59
2021/08/17 11:44:49;;;;;;;2.83;2.42;;;21.70;33.60;;;;;;5072764;28;20252;-58
2021/08/17 11:47:15;;;;;;;3.38;2.40;;;21.80;32.80;;;;;;5071301;28;20205;-58
2021/08/17 11:49:42;;;;;;;4.15;2.90;;;21.10;33.10;;;;;;5067151;28;20260;-58
2021/08/17 11:52:08;;;;;;;5.47;3.10;;;20.80;33.40;;;;;;5054343;28;20198;-58
2021/08/17 11:54:35;;;;;;;3.38;2.50;;;21.30;33.20;;;;;;5060420;28;20222;-59
2021/08/17 11:57:01;;;;;;;4.38;2.80;;;21.30;33.00;;;;;;5064982;28;20205;-59
2021/08/17 11:59:28;;;;;;;3.50;2.83;;;21.10;33.10;;;;;;5072867;28;20197;-58
2021/08/17 12:01:54;;;;;;;2.75;2.40;;;21.20;33.30;;;;;;5072296;28;20197;-59
2021/08/17 12:04:20;;;;;;;3.03;2.72;;;21.30;33.00;;;;;;5073666;28;20207;-59
2021/08/17 12:06:47;;;;;;;2.83;2.40;;;20.80;33.80;;;;;;5070102;28;20198;-57
2021/08/17 12:09:13;;;;;;;4.83;2.60;;;21.00;34.00;;;;;;5073270;28;20207;-58
2021/08/17 12:11:40;;;;;;;4.90;2.80;;;21.30;33.80;;;;;;5069360;28;20292;-55
2021/08/17 12:14:06;;;;;;;3.40;2.67;;;21.10;33.80;;;;;;5065006;28;20217;-57
2021/08/17 12:16:33;;;;;;;3.87;2.60;;;21.10;33.60;;;;;;5072654;28;20201;-51
2021/08/17 12:18:59;;;;;;;5.03;2.90;;;21.20;33.80;;;;;;5073104;28;20198;-51
2021/08/17 12:21:25;;;;;;;3.35;2.50;;;21.30;33.80;;;;;;5073184;28;20631;-50
2021/08/17 12:23:52;;;;;;;5.27;2.63;;;21.30;33.30;;;;;;5069102;28;20211;-49
2021/08/17 12:26:18;;;;;;;2.45;2.25;;;21.40;33.30;;;;;;5072279;28;20687;-50
2021/08/17 12:28:45;;;;;;;2.80;2.50;;;21.30;32.80;;;;;;5065438;28;20205;-52
2021/08/17 12:31:12;;;;;;;3.00;2.33;;;21.20;32.80;;;;;;5067050;28;20326;-55
2021/08/17 12:33:38;;;;;;;2.87;2.23;;;21.40;32.30;;;;;;5072093;28;20193;-54
2021/08/17 12:36:04;;;;;;;2.77;2.30;;;21.40;32.50;;;;;;5072570;28;20235;-53
2021/08/17 12:38:31;;;;;;;3.72;2.70;;;21.40;32.80;;;;;;5070241;28;20197;-54
2021/08/17 12:40:57;;;;;;;3.38;2.83;;;21.20;32.90;;;;;;5068801;28;20221;-50
2021/08/17 12:43:24;;;;;;;2.67;2.30;;;21.10;33.20;;;;;;5071512;28;20220;-53